Time;durP1;ratioP1;P1;durP2;ratioP2;P2;SDS_P1;SDS_P2;PMS_P1;PMS_P2;Temp;Humidity;BMP_temperature;BMP_pressure;BME280_temperature;BME280_humidity;BME280_pressure;Samples;Min_cycle;Max_cycle;Signal;HPM_P1;HPM_P2
2023/12/19 00:00:12;;;;;;;30.85;11.88;;;3.80;99.90;;;;;;5015779;28;20049;-66
2023/12/19 00:02:39;;;;;;;30.33;13.13;;;3.90;99.90;;;;;;5000481;28;20058;-66
2023/12/19 00:05:08;;;;;;;30.75;12.77;;;3.90;99.90;;;;;;5015957;28;20030;-66
2023/12/19 00:07:34;;;;;;;33.90;13.63;;;3.90;99.90;;;;;;5000959;28;20026;-66
2023/12/19 00:09:59;;;;;;;27.63;11.68;;;3.90;99.90;;;;;;5015706;28;20026;-66
2023/12/19 00:12:25;;;;;;;28.08;11.20;;;3.90;99.90;;;;;;4999882;28;20133;-66
2023/12/19 00:14:50;;;;;;;24.17;10.25;;;3.90;99.90;;;;;;4999133;28;20117;-63
2023/12/19 00:17:16;;;;;;;24.02;10.50;;;4.00;99.90;;;;;;5015484;28;20027;-63
2023/12/19 00:19:41;;;;;;;27.00;11.93;;;4.00;99.90;;;;;;4999939;28;20030;-64
2023/12/19 00:22:07;;;;;;;29.08;10.80;;;4.00;99.90;;;;;;5000044;28;20026;-63
2023/12/19 00:24:33;;;;;;;27.85;11.90;;;4.00;99.90;;;;;;5015271;28;20019;-64
2023/12/19 00:26:58;;;;;;;28.17;10.88;;;4.00;99.90;;;;;;4998981;28;20064;-64
2023/12/19 00:29:24;;;;;;;25.88;10.90;;;4.00;99.90;;;;;;5015199;28;20045;-64
2023/12/19 00:31:51;;;;;;;24.67;9.85;;;4.10;99.90;;;;;;5015922;28;20116;-64
2023/12/19 00:34:17;;;;;;;24.52;10.30;;;4.10;99.90;;;;;;4998915;28;20030;-64
2023/12/19 00:36:43;;;;;;;26.75;10.43;;;4.10;99.90;;;;;;5016148;28;20033;-64
2023/12/19 00:39:09;;;;;;;22.17;10.70;;;4.10;99.90;;;;;;5019035;28;20018;-64
2023/12/19 00:41:34;;;;;;;22.40;9.18;;;4.10;99.90;;;;;;5017988;28;20018;-63
2023/12/19 00:44:01;;;;;;;20.85;9.43;;;4.00;99.90;;;;;;5018885;28;20126;-64
2023/12/19 00:46:26;;;;;;;31.52;11.18;;;3.90;99.90;;;;;;5018258;28;20026;-64
2023/12/19 00:48:52;;;;;;;20.80;10.07;;;3.70;99.90;;;;;;5018163;28;20084;-63
2023/12/19 00:51:17;;;;;;;23.10;9.95;;;3.60;99.90;;;;;;5034517;28;20079;-64
2023/12/19 00:53:43;;;;;;;26.60;10.23;;;3.50;99.90;;;;;;5017934;28;20036;-63
2023/12/19 00:56:09;;;;;;;24.35;10.23;;;3.40;99.90;;;;;;5016326;28;20026;-64
2023/12/19 00:58:36;;;;;;;26.65;11.50;;;3.30;99.90;;;;;;5034395;28;20033;-64
2023/12/19 01:01:02;;;;;;;23.67;9.70;;;3.30;99.90;;;;;;5018776;28;20026;-63
2023/12/19 01:03:27;;;;;;;22.23;10.07;;;3.40;99.90;;;;;;5034692;28;20045;-66
2023/12/19 01:05:53;;;;;;;26.30;10.90;;;3.60;99.90;;;;;;5034339;28;20030;-66
2023/12/19 01:08:18;;;;;;;23.35;9.45;;;3.60;99.90;;;;;;5018665;28;20027;-66
2023/12/19 01:10:44;;;;;;;23.45;10.43;;;3.70;99.90;;;;;;5017697;28;20041;-66
2023/12/19 01:13:09;;;;;;;20.50;9.80;;;3.70;99.90;;;;;;5016467;28;20034;-66
2023/12/19 01:15:35;;;;;;;20.20;10.07;;;3.80;99.90;;;;;;5018348;28;20093;-66
2023/12/19 01:18:01;;;;;;;19.77;9.60;;;3.80;99.90;;;;;;5034034;28;20022;-66
2023/12/19 01:20:27;;;;;;;17.55;8.63;;;4.00;99.90;;;;;;5018958;28;20034;-66
2023/12/19 01:22:52;;;;;;;24.75;9.32;;;4.10;99.90;;;;;;5018659;28;20033;-66
2023/12/19 01:25:18;;;;;;;17.40;8.63;;;3.90;99.90;;;;;;5017442;28;20021;-66
2023/12/19 01:27:43;;;;;;;23.23;9.60;;;4.00;99.90;;;;;;5018639;28;20029;-66
2023/12/19 01:30:09;;;;;;;24.02;9.57;;;4.00;99.90;;;;;;5033698;28;20030;-66
2023/12/19 01:32:35;;;;;;;20.63;9.30;;;4.00;99.90;;;;;;5018185;28;20026;-66
2023/12/19 01:35:00;;;;;;;16.08;7.78;;;4.10;99.90;;;;;;5017167;28;20050;-66
2023/12/19 01:37:26;;;;;;;17.20;8.40;;;4.10;99.90;;;;;;5018146;28;20022;-66
2023/12/19 01:39:51;;;;;;;15.80;8.18;;;4.20;99.90;;;;;;5018095;28;20144;-66
2023/12/19 01:42:17;;;;;;;18.73;8.93;;;4.20;99.90;;;;;;5018215;28;20022;-67
2023/12/19 01:44:47;;;;;;;19.00;8.75;;;4.20;99.90;;;;;;5017379;28;20033;-67
2023/12/19 01:47:14;;;;;;;19.60;8.77;;;4.20;99.90;;;;;;5018337;28;20026;-67
2023/12/19 01:49:39;;;;;;;18.20;8.77;;;4.20;99.90;;;;;;5018009;28;20049;-66
2023/12/19 01:52:05;;;;;;;19.35;9.15;;;4.20;99.90;;;;;;5017501;28;20030;-66
2023/12/19 01:54:32;;;;;;;20.75;8.85;;;4.30;99.90;;;;;;5016936;28;20025;-67
2023/12/19 01:56:58;;;;;;;19.08;8.38;;;4.20;99.90;;;;;;5017743;28;20032;-66
2023/12/19 01:59:24;;;;;;;16.52;7.85;;;4.20;99.90;;;;;;5016981;28;20124;-66
2023/12/19 02:01:50;;;;;;;20.27;7.93;;;4.30;99.90;;;;;;5017700;28;20022;-67
2023/12/19 02:04:16;;;;;;;17.02;8.10;;;4.20;99.90;;;;;;5017654;28;20049;-66
2023/12/19 02:06:41;;;;;;;21.23;8.70;;;4.30;99.90;;;;;;5017809;28;20022;-66
2023/12/19 02:09:07;;;;;;;18.45;8.45;;;4.30;99.90;;;;;;5017680;28;20160;-66
2023/12/19 02:11:32;;;;;;;19.63;8.65;;;4.20;99.90;;;;;;5017656;28;20079;-66
2023/12/19 02:13:58;;;;;;;20.10;9.77;;;4.20;99.90;;;;;;5016420;28;20081;-67
2023/12/19 02:16:26;;;;;;;17.85;8.32;;;4.20;99.90;;;;;;5017499;28;20022;-63
2023/12/19 02:19:05;;;;;;;18.58;8.80;;;4.20;99.90;;;;;;5017622;28;20068;-63
2023/12/19 02:21:31;;;;;;;19.88;8.77;;;4.20;99.90;;;;;;5017351;28;20041;-63
2023/12/19 02:23:57;;;;;;;16.02;8.13;;;4.20;99.90;;;;;;5017357;28;20029;-66
2023/12/19 02:26:26;;;;;;;15.45;8.15;;;4.30;99.90;;;;;;5016917;28;20026;-66
2023/12/19 02:28:52;;;;;;;18.92;8.48;;;4.20;99.90;;;;;;5017315;28;20060;-66
2023/12/19 02:31:19;;;;;;;19.40;9.15;;;4.20;99.90;;;;;;5017917;28;20104;-66
2023/12/19 02:33:45;;;;;;;19.42;8.80;;;4.30;99.90;;;;;;5016254;28;20029;-64
2023/12/19 02:36:11;;;;;;;22.35;8.18;;;4.20;99.90;;;;;;5017325;28;20025;-64
2023/12/19 02:38:37;;;;;;;22.17;9.05;;;4.10;99.90;;;;;;5016732;28;20035;-64
2023/12/19 02:41:02;;;;;;;19.33;8.60;;;4.30;99.90;;;;;;5017204;28;20025;-70
2023/12/19 02:43:28;;;;;;;15.68;7.53;;;4.30;99.90;;;;;;5017496;28;20032;-69
2023/12/19 02:45:54;;;;;;;17.38;7.13;;;4.50;99.90;;;;;;5018326;28;20072;-64
2023/12/19 02:48:19;;;;;;;18.27;7.93;;;4.40;99.90;;;;;;5017314;28;20052;-64
2023/12/19 02:50:45;;;;;;;22.52;8.85;;;4.40;99.90;;;;;;5016408;28;20021;-64
2023/12/19 02:53:10;;;;;;;19.10;8.60;;;4.50;99.90;;;;;;5016942;28;20030;-64
2023/12/19 02:55:36;;;;;;;16.95;7.97;;;4.50;99.90;;;;;;5016996;28;20018;-64
2023/12/19 02:58:01;;;;;;;13.05;7.22;;;4.60;99.90;;;;;;5017081;28;20029;-64
2023/12/19 03:00:27;;;;;;;16.50;7.75;;;4.60;99.90;;;;;;5016105;28;20022;-64
2023/12/19 03:02:52;;;;;;;17.25;8.02;;;4.60;99.90;;;;;;5017189;28;20030;-64
2023/12/19 03:05:18;;;;;;;20.73;9.23;;;4.60;99.90;;;;;;5018333;28;20028;-63
2023/12/19 03:07:44;;;;;;;19.92;8.30;;;4.60;99.90;;;;;;5020087;28;20061;-64
2023/12/19 03:10:09;;;;;;;16.23;7.60;;;4.60;99.90;;;;;;5021164;28;20037;-64
2023/12/19 03:12:35;;;;;;;17.83;8.57;;;4.60;99.90;;;;;;5015618;28;20026;-64
2023/12/19 03:15:02;;;;;;;21.17;8.40;;;4.60;99.90;;;;;;5000958;28;20022;-64
2023/12/19 03:17:28;;;;;;;16.08;7.47;;;4.50;99.90;;;;;;5001208;28;20142;-64
2023/12/19 03:19:53;;;;;;;16.80;7.60;;;4.50;99.90;;;;;;5001296;28;20031;-64
2023/12/19 03:22:19;;;;;;;21.77;8.73;;;4.60;99.90;;;;;;5001017;28;20026;-64
2023/12/19 03:24:45;;;;;;;19.42;9.65;;;4.60;99.90;;;;;;5016960;28;20124;-64
2023/12/19 03:27:11;;;;;;;17.80;8.68;;;4.60;99.90;;;;;;5000957;28;20158;-64
2023/12/19 03:29:36;;;;;;;19.50;8.10;;;4.60;99.90;;;;;;5001097;28;20054;-64
2023/12/19 03:32:02;;;;;;;19.88;8.82;;;4.60;99.90;;;;;;5000826;28;20023;-64
2023/12/19 03:34:28;;;;;;;18.25;8.60;;;4.70;99.90;;;;;;5000849;28;20018;-64
2023/12/19 03:36:54;;;;;;;21.00;9.00;;;4.60;99.90;;;;;;5000120;28;20022;-69
2023/12/19 03:39:19;;;;;;;20.45;8.57;;;4.60;99.90;;;;;;5002388;28;20027;-69
2023/12/19 03:41:45;;;;;;;18.30;8.40;;;4.60;99.90;;;;;;5000962;28;20049;-64
2023/12/19 03:44:10;;;;;;;22.02;8.95;;;4.70;99.90;;;;;;4999521;28;20062;-64
2023/12/19 03:46:36;;;;;;;21.00;9.65;;;4.60;99.90;;;;;;5000657;28;20027;-64
2023/12/19 03:49:02;;;;;;;18.60;8.48;;;4.60;99.90;;;;;;5000646;28;20030;-64
2023/12/19 03:51:27;;;;;;;21.35;9.40;;;4.60;99.90;;;;;;5017045;28;20030;-64
2023/12/19 03:53:53;;;;;;;23.55;9.20;;;4.60;99.90;;;;;;5016348;28;20105;-64
2023/12/19 03:56:19;;;;;;;18.27;9.07;;;4.60;99.90;;;;;;4999950;28;20019;-63
2023/12/19 03:58:45;;;;;;;18.42;8.13;;;4.70;99.90;;;;;;4999500;28;20105;-63
2023/12/19 04:01:11;;;;;;;17.73;8.70;;;4.70;99.90;;;;;;4999474;28;20117;-63
2023/12/19 04:03:36;;;;;;;20.20;9.43;;;4.60;99.90;;;;;;5000263;28;20022;-63
2023/12/19 04:06:02;;;;;;;21.45;9.18;;;4.50;99.90;;;;;;5015623;28;20029;-63
2023/12/19 04:08:28;;;;;;;20.00;8.65;;;4.40;99.90;;;;;;4999373;28;20026;-63
2023/12/19 04:10:53;;;;;;;22.52;9.77;;;4.30;99.90;;;;;;5015663;28;20086;-63
2023/12/19 04:13:19;;;;;;;25.20;9.55;;;4.30;99.90;;;;;;5000150;28;20030;-63
2023/12/19 04:15:44;;;;;;;23.98;9.65;;;4.30;99.90;;;;;;4999804;28;20142;-63
2023/12/19 04:18:10;;;;;;;24.17;9.63;;;4.30;99.90;;;;;;5015938;28;20023;-63
2023/12/19 04:20:36;;;;;;;19.05;8.70;;;4.40;99.90;;;;;;5000022;28;20053;-63
2023/12/19 04:23:02;;;;;;;21.83;9.57;;;4.40;99.90;;;;;;5015456;28;20034;-63
2023/12/19 04:25:28;;;;;;;21.83;8.95;;;4.40;99.90;;;;;;5015199;28;20038;-63
2023/12/19 04:27:53;;;;;;;20.83;9.27;;;4.40;99.90;;;;;;4999335;28;20033;-63
2023/12/19 04:30:19;;;;;;;23.48;9.95;;;4.40;99.90;;;;;;4998985;28;20033;-63
2023/12/19 04:32:44;;;;;;;22.48;9.05;;;4.40;99.90;;;;;;4999168;28;20022;-63
2023/12/19 04:35:10;;;;;;;20.50;9.48;;;4.40;99.90;;;;;;5015516;28;20023;-63
2023/12/19 04:37:35;;;;;;;25.52;9.90;;;4.40;99.90;;;;;;4998756;28;20023;-63
2023/12/19 04:40:02;;;;;;;20.63;9.73;;;4.40;99.90;;;;;;5015197;28;20019;-63
2023/12/19 04:42:28;;;;;;;19.00;8.90;;;4.40;99.90;;;;;;4998622;28;20030;-63
2023/12/19 04:44:54;;;;;;;20.83;9.50;;;4.40;99.90;;;;;;5014799;28;20057;-63
2023/12/19 04:47:19;;;;;;;19.00;9.13;;;4.30;99.90;;;;;;4998673;28;20026;-63
2023/12/19 04:49:45;;;;;;;20.45;9.40;;;4.30;99.90;;;;;;4999737;28;20077;-64
2023/12/19 04:52:11;;;;;;;22.88;9.57;;;4.40;99.90;;;;;;4999791;28;20027;-63
2023/12/19 04:54:36;;;;;;;21.58;10.35;;;4.30;99.90;;;;;;4999176;28;20026;-63
2023/12/19 04:57:03;;;;;;;23.45;8.70;;;4.30;99.90;;;;;;4999513;28;20030;-63
2023/12/19 04:59:28;;;;;;;23.42;10.30;;;4.40;99.90;;;;;;4999414;28;20015;-63
2023/12/19 05:01:54;;;;;;;20.63;8.82;;;4.50;99.90;;;;;;4999160;28;20023;-63
2023/12/19 05:04:19;;;;;;;16.80;8.05;;;4.50;99.90;;;;;;4999130;28;20110;-63
2023/12/19 05:06:45;;;;;;;17.85;9.55;;;4.60;99.90;;;;;;4999336;28;20030;-63
2023/12/19 05:09:10;;;;;;;19.60;8.65;;;4.50;99.90;;;;;;4998549;28;20037;-63
2023/12/19 05:11:36;;;;;;;21.15;9.60;;;4.50;99.90;;;;;;4998115;28;20030;-63
2023/12/19 05:14:02;;;;;;;19.80;8.90;;;4.50;99.90;;;;;;5014339;28;20058;-63
2023/12/19 05:16:28;;;;;;;19.25;9.10;;;4.40;99.90;;;;;;5014046;28;20025;-63
2023/12/19 05:18:53;;;;;;;19.33;8.23;;;4.40;99.90;;;;;;5014418;28;20019;-63
2023/12/19 05:21:21;;;;;;;21.17;9.18;;;4.30;99.90;;;;;;5014509;28;20106;-63
2023/12/19 05:23:47;;;;;;;22.77;10.40;;;4.20;99.90;;;;;;5014727;28;20031;-63
2023/12/19 05:26:13;;;;;;;20.45;8.95;;;3.80;99.90;;;;;;4998918;28;20026;-63
2023/12/19 05:28:39;;;;;;;22.00;9.20;;;4.00;99.90;;;;;;4997989;28;20026;-63
2023/12/19 05:31:05;;;;;;;18.92;9.13;;;4.00;99.90;;;;;;5014131;28;20026;-63
2023/12/19 05:33:32;;;;;;;25.58;10.27;;;3.90;99.90;;;;;;4998635;28;20023;-63
2023/12/19 05:35:57;;;;;;;22.73;10.55;;;3.70;99.90;;;;;;4997543;28;20085;-63
2023/12/19 05:38:23;;;;;;;24.13;10.13;;;3.70;99.90;;;;;;4998368;28;20026;-63
2023/12/19 05:40:51;;;;;;;24.63;11.38;;;3.70;99.90;;;;;;4998665;28;20093;-63
2023/12/19 05:43:17;;;;;;;24.27;10.07;;;3.60;99.90;;;;;;4999246;28;20022;-64
2023/12/19 05:45:42;;;;;;;22.17;9.32;;;3.70;99.90;;;;;;4999022;28;20085;-63
2023/12/19 05:48:08;;;;;;;28.20;10.57;;;3.60;99.90;;;;;;5014049;28;20027;-63
2023/12/19 05:50:34;;;;;;;25.33;10.25;;;3.80;99.90;;;;;;4998412;28;20036;-63
2023/12/19 05:52:59;;;;;;;29.35;10.93;;;3.70;99.90;;;;;;4998170;28;20031;-64
2023/12/19 05:55:25;;;;;;;28.80;10.70;;;3.50;99.90;;;;;;4998011;28;20018;-63
2023/12/19 05:57:51;;;;;;;26.08;10.85;;;3.40;99.90;;;;;;4997599;28;20037;-63
2023/12/19 06:00:20;;;;;;;27.55;11.00;;;3.50;99.90;;;;;;4998050;28;20030;-63
2023/12/19 06:02:48;;;;;;;27.63;11.73;;;3.70;99.90;;;;;;4997333;28;20086;-63
2023/12/19 06:05:13;;;;;;;26.40;10.70;;;3.80;99.90;;;;;;4998027;28;20030;-63
2023/12/19 06:07:41;;;;;;;22.90;10.90;;;3.90;99.90;;;;;;4997118;28;20026;-63
2023/12/19 06:10:08;;;;;;;26.80;10.93;;;3.90;99.90;;;;;;4998288;28;20026;-63
2023/12/19 06:12:34;;;;;;;29.13;10.93;;;3.70;99.90;;;;;;4997828;28;20027;-66
2023/12/19 06:15:00;;;;;;;27.98;11.00;;;3.70;99.90;;;;;;5013596;28;20023;-66
2023/12/19 06:17:27;;;;;;;28.95;11.82;;;3.70;99.90;;;;;;4997207;28;20031;-66
2023/12/19 06:19:53;;;;;;;28.08;11.07;;;3.80;99.90;;;;;;4998272;28;20026;-66
2023/12/19 06:22:18;;;;;;;26.60;12.13;;;3.70;99.90;;;;;;4997190;28;20027;-65
2023/12/19 06:24:45;;;;;;;24.33;10.82;;;3.60;99.90;;;;;;4996704;28;20029;-66
2023/12/19 06:27:12;;;;;;;24.10;10.68;;;3.80;99.90;;;;;;5012853;28;20027;-66
2023/12/19 06:29:38;;;;;;;22.67;9.23;;;3.90;99.90;;;;;;4997928;28;20109;-65
2023/12/19 06:32:03;;;;;;;25.63;10.98;;;3.70;99.90;;;;;;5013135;28;20046;-66
2023/12/19 06:34:29;;;;;;;26.92;10.95;;;3.70;99.90;;;;;;4996823;28;20052;-66
2023/12/19 06:36:54;;;;;;;29.70;12.52;;;3.70;99.90;;;;;;4996884;28;20025;-66
2023/12/19 06:39:20;;;;;;;27.05;12.38;;;3.70;99.90;;;;;;5013319;28;20025;-65
2023/12/19 06:41:45;;;;;;;27.48;11.68;;;3.60;99.90;;;;;;4997841;28;20053;-66
2023/12/19 06:44:12;;;;;;;28.27;10.27;;;3.60;99.90;;;;;;4997639;28;20041;-66
2023/12/19 06:46:38;;;;;;;27.15;10.73;;;3.90;99.90;;;;;;4997676;28;20029;-66
2023/12/19 06:49:04;;;;;;;23.60;10.80;;;4.00;99.90;;;;;;4997874;28;20034;-66
2023/12/19 06:51:31;;;;;;;23.02;9.88;;;3.90;99.90;;;;;;4996522;28;20026;-65
2023/12/19 06:53:57;;;;;;;22.02;10.50;;;4.00;99.90;;;;;;4997743;28;20037;-66
2023/12/19 06:56:26;;;;;;;23.17;10.23;;;4.20;99.90;;;;;;4996523;28;20029;-66
2023/12/19 06:58:53;;;;;;;24.38;10.48;;;4.30;99.90;;;;;;4997609;28;20140;-66
2023/12/19 07:01:18;;;;;;;23.30;10.75;;;4.30;99.90;;;;;;4997439;28;20033;-66
2023/12/19 07:03:44;;;;;;;24.40;10.75;;;4.40;99.90;;;;;;4997577;28;20034;-66
2023/12/19 07:06:13;;;;;;;25.10;10.55;;;4.30;99.90;;;;;;4996647;28;20088;-66
2023/12/19 07:08:39;;;;;;;25.30;10.80;;;4.30;99.90;;;;;;4997457;28;20081;-66
2023/12/19 07:11:05;;;;;;;22.33;10.93;;;4.40;99.90;;;;;;5013325;28;20026;-66
2023/12/19 07:13:31;;;;;;;22.83;10.02;;;4.30;99.90;;;;;;4997267;28;20026;-66
2023/12/19 07:15:56;;;;;;;23.85;10.52;;;4.40;99.90;;;;;;4997245;28;20022;-66
2023/12/19 07:18:22;;;;;;;25.10;11.25;;;4.30;99.90;;;;;;4996617;28;20045;-66
2023/12/19 07:20:48;;;;;;;28.70;10.90;;;4.20;99.90;;;;;;4997272;28;20022;-66
2023/12/19 07:23:14;;;;;;;19.65;8.88;;;4.20;99.90;;;;;;4996613;28;20133;-66
2023/12/19 07:25:40;;;;;;;22.58;9.40;;;4.10;99.90;;;;;;4997176;28;20025;-66
2023/12/19 07:28:06;;;;;;;26.00;12.00;;;3.90;99.90;;;;;;4997188;28;20026;-65
2023/12/19 07:30:31;;;;;;;28.48;10.80;;;3.90;99.90;;;;;;4997180;28;20023;-66
2023/12/19 07:32:59;;;;;;;26.30;10.38;;;3.90;99.90;;;;;;5012408;28;20057;-66
2023/12/19 07:35:24;;;;;;;28.13;9.95;;;3.90;99.90;;;;;;4996806;28;20029;-66
2023/12/19 07:37:50;;;;;;;22.45;10.07;;;4.00;99.90;;;;;;4996916;28;20026;-66
2023/12/19 07:40:16;;;;;;;26.33;10.20;;;4.00;99.90;;;;;;4997066;28;20018;-66
2023/12/19 07:42:42;;;;;;;22.67;10.45;;;4.10;99.90;;;;;;4996024;28;20038;-66
2023/12/19 07:45:08;;;;;;;24.38;10.10;;;4.20;99.90;;;;;;4996990;28;20073;-66
2023/12/19 07:47:33;;;;;;;22.85;9.90;;;4.20;99.90;;;;;;5012468;28;20034;-66
2023/12/19 07:49:59;;;;;;;25.70;9.52;;;4.10;99.90;;;;;;4996862;28;20026;-66
2023/12/19 07:52:25;;;;;;;21.38;9.32;;;4.10;99.90;;;;;;5015722;28;20026;-66
2023/12/19 07:54:51;;;;;;;24.98;10.25;;;4.20;99.90;;;;;;5016154;28;20022;-66
2023/12/19 07:57:16;;;;;;;19.23;8.73;;;4.30;99.90;;;;;;5000401;28;20018;-66
2023/12/19 07:59:42;;;;;;;23.42;9.20;;;4.50;99.90;;;;;;5000947;28;20027;-66
2023/12/19 08:02:08;;;;;;;24.48;9.15;;;4.60;99.90;;;;;;5015735;28;20030;-66
2023/12/19 08:04:34;;;;;;;14.95;8.70;;;4.60;99.90;;;;;;5015569;28;20033;-66
2023/12/19 08:07:00;;;;;;;19.33;9.40;;;4.70;99.90;;;;;;5000525;28;20034;-65
2023/12/19 08:09:28;;;;;;;26.95;9.27;;;4.70;99.90;;;;;;5000079;28;20031;-66
2023/12/19 08:11:55;;;;;;;25.30;11.40;;;4.60;99.90;;;;;;5000447;28;20026;-66
2023/12/19 08:14:21;;;;;;;21.52;10.45;;;4.60;99.90;;;;;;4999910;28;20022;-66
2023/12/19 08:16:46;;;;;;;26.13;11.10;;;4.40;99.90;;;;;;5000203;28;20021;-66
2023/12/19 08:19:12;;;;;;;27.35;10.30;;;4.30;99.90;;;;;;5000214;28;20044;-66
2023/12/19 08:21:54;;;;;;;23.55;10.57;;;4.20;99.90;;;;;;4998963;28;20029;-66
2023/12/19 08:24:21;;;;;;;;;;;4.30;99.90;;;;;;5000282;28;20109;-66
2023/12/19 08:26:49;;;;;;;27.70;10.45;;;4.30;99.90;;;;;;4998873;28;19906;-66
2023/12/19 08:29:15;;;;;;;27.17;11.43;;;4.30;99.90;;;;;;5002746;28;20044;-66
2023/12/19 08:31:40;;;;;;;24.05;10.05;;;4.40;99.90;;;;;;5019319;28;20089;-66
2023/12/19 08:34:06;;;;;;;26.58;10.38;;;4.40;99.90;;;;;;5018041;28;20030;-66
2023/12/19 08:36:32;;;;;;;26.83;11.13;;;4.50;99.90;;;;;;5019045;28;20026;-65
2023/12/19 08:38:59;;;;;;;27.30;10.88;;;4.50;99.90;;;;;;5034685;28;20033;-63
2023/12/19 08:41:25;;;;;;;26.27;10.77;;;4.40;99.90;;;;;;5034964;28;20033;-63
2023/12/19 08:43:50;;;;;;;29.27;12.32;;;4.20;99.90;;;;;;5018796;28;20030;-63
2023/12/19 08:46:19;;;;;;;23.00;10.75;;;4.10;99.90;;;;;;5042400;23;20046;-76
2023/12/19 08:48:48;;;;;;;28.38;11.85;;;4.10;99.90;;;;;;5018973;28;20018;-76
2023/12/19 08:51:13;;;;;;;25.05;10.40;;;4.10;99.90;;;;;;5019414;28;20104;-76
2023/12/19 08:53:39;;;;;;;23.25;10.40;;;4.20;99.90;;;;;;5034441;28;20026;-76
2023/12/19 08:56:05;;;;;;;26.98;10.50;;;4.40;99.90;;;;;;5018808;28;20022;-76
2023/12/19 08:58:31;;;;;;;22.65;10.05;;;4.20;99.90;;;;;;5019025;28;20045;-76
2023/12/19 09:00:56;;;;;;;23.02;9.80;;;4.20;99.90;;;;;;5018777;28;20045;-76
2023/12/19 09:03:23;;;;;;;22.92;10.23;;;4.20;99.90;;;;;;5017697;28;20026;-76
2023/12/19 09:05:49;;;;;;;22.77;9.88;;;4.20;99.90;;;;;;5018734;28;20053;-76
2023/12/19 09:08:15;;;;;;;20.75;8.02;;;4.30;99.90;;;;;;5018990;28;20025;-76
2023/12/19 09:10:41;;;;;;;18.52;8.32;;;4.40;99.90;;;;;;5018994;28;20086;-76
2023/12/19 09:13:07;;;;;;;17.17;8.27;;;4.40;99.90;;;;;;5017630;28;20116;-76
2023/12/19 09:15:33;;;;;;;17.25;7.60;;;4.20;99.90;;;;;;5018442;28;20057;-76
2023/12/19 09:17:58;;;;;;;12.90;7.07;;;4.30;99.90;;;;;;5017980;28;20113;-76
2023/12/19 09:20:24;;;;;;;19.77;8.23;;;4.50;99.90;;;;;;5017533;28;20045;-76
2023/12/19 09:22:50;;;;;;;19.60;7.93;;;4.30;99.90;;;;;;5018401;28;20089;-75
2023/12/19 09:25:16;;;;;;;15.98;7.18;;;3.90;99.90;;;;;;5018712;28;20033;-76
2023/12/19 09:27:43;;;;;;;16.30;7.30;;;4.00;99.90;;;;;;5018272;28;20028;-76
2023/12/19 09:30:10;;;;;;;19.48;8.40;;;4.20;99.90;;;;;;5018598;28;20105;-76
2023/12/19 09:32:40;;;;;;;15.35;6.78;;;4.30;99.90;;;;;;5017508;28;20025;-76
2023/12/19 09:35:07;;;;;;;19.38;7.40;;;4.20;99.90;;;;;;5018120;28;20049;-75
2023/12/19 09:37:33;;;;;;;18.80;7.72;;;4.00;99.90;;;;;;5018325;28;20022;-76
2023/12/19 09:39:59;;;;;;;16.42;7.43;;;4.10;99.90;;;;;;5017215;28;20033;-76
2023/12/19 09:42:25;;;;;;;15.95;8.20;;;4.20;99.90;;;;;;5018157;28;20014;-75
2023/12/19 09:44:51;;;;;;;16.67;7.57;;;4.10;99.90;;;;;;5017191;28;20052;-75
2023/12/19 09:47:27;;;;;;;15.43;7.55;;;4.20;99.90;;;;;;5017246;28;20072;-75
2023/12/19 09:49:57;;;;;;;19.05;8.13;;;4.20;99.90;;;;;;5017058;28;20022;-74
2023/12/19 09:52:27;;;;;;;15.60;7.15;;;4.10;99.90;;;;;;5017278;28;20026;-75
2023/12/19 09:54:53;;;;;;;20.75;8.68;;;4.20;99.90;;;;;;5017538;28;20021;-74
2023/12/19 09:57:20;;;;;;;20.48;8.30;;;4.40;99.90;;;;;;5017936;28;20047;-73
2023/12/19 09:59:47;;;;;;;17.85;8.98;;;4.40;99.90;;;;;;5017088;28;20076;-75
2023/12/19 10:02:14;;;;;;;19.42;8.80;;;4.50;99.90;;;;;;5017183;28;20026;-74
2023/12/19 10:04:40;;;;;;;17.00;7.88;;;4.40;99.90;;;;;;5017677;28;20100;-74
2023/12/19 10:07:05;;;;;;;18.58;8.02;;;4.30;99.90;;;;;;5017785;28;20105;-74
2023/12/19 10:09:31;;;;;;;19.88;8.07;;;4.40;99.90;;;;;;5018137;28;20053;-74
2023/12/19 10:12:11;;;;;;;17.30;7.90;;;4.20;99.90;;;;;;5016940;28;20026;-73
2023/12/19 10:14:37;;;;;;;16.70;7.78;;;4.30;99.90;;;;;;5017229;28;20026;-73
2023/12/19 10:17:11;;;;;;;16.90;8.07;;;4.30;99.90;;;;;;5017623;28;20022;-73
2023/12/19 10:19:38;;;;;;;18.98;8.10;;;4.50;99.90;;;;;;5017671;28;20022;-73
2023/12/19 10:22:04;;;;;;;23.73;7.88;;;4.40;99.90;;;;;;5017524;28;20026;-73
2023/12/19 10:24:30;;;;;;;18.35;7.88;;;4.50;99.90;;;;;;5017585;28;20100;-73
2023/12/19 10:27:02;;;;;;;16.52;7.20;;;4.50;99.90;;;;;;5017743;28;20061;-68
2023/12/19 10:29:36;;;;;;;20.90;8.25;;;4.40;99.90;;;;;;5017661;28;20060;-67
2023/12/19 10:32:19;;;;;;;16.30;7.65;;;4.60;99.90;;;;;;5017529;28;20080;-68
2023/12/19 10:34:46;;;;;;;18.75;8.65;;;4.70;99.90;;;;;;5017337;28;20029;-68
2023/12/19 10:37:12;;;;;;;19.52;9.50;;;4.60;99.90;;;;;;5017862;28;20018;-68
2023/12/19 10:39:42;;;;;;;18.52;7.55;;;4.70;99.90;;;;;;5017389;28;20086;-69
2023/12/19 10:42:09;;;;;;;22.42;8.35;;;4.80;99.90;;;;;;5017197;28;20080;-68
2023/12/19 10:44:39;;;;;;;21.20;8.68;;;4.80;99.90;;;;;;5017388;28;20053;-68
2023/12/19 10:47:09;;;;;;;16.65;8.25;;;4.70;99.90;;;;;;5016151;28;20098;-68
2023/12/19 10:49:38;;;;;;;19.65;8.90;;;4.80;99.90;;;;;;5016315;28;20112;-68
2023/12/19 10:52:09;;;;;;;23.25;8.98;;;4.70;99.90;;;;;;5017127;28;20057;-69
2023/12/19 10:54:36;;;;;;;17.93;8.03;;;4.70;99.90;;;;;;5017228;28;20022;-69
2023/12/19 10:57:18;;;;;;;20.60;8.45;;;4.80;99.90;;;;;;5016571;28;20033;-67
2023/12/19 10:59:44;;;;;;;20.02;8.10;;;4.70;99.90;;;;;;5017441;28;20033;-69
2023/12/19 11:02:34;;;;;;;21.58;8.35;;;4.70;99.90;;;;;;5017552;28;20114;-69
2023/12/19 11:05:25;;;;;;;17.20;7.75;;;4.80;99.90;;;;;;5017172;28;20052;-68
2023/12/19 11:07:54;;;;;;;18.23;7.80;;;4.90;99.90;;;;;;5012079;28;20034;-69
2023/12/19 11:10:21;;;;;;;15.90;7.28;;;4.90;99.90;;;;;;5016972;28;20103;-70
2023/12/19 11:12:49;;;;;;;22.60;8.07;;;4.90;99.90;;;;;;5017315;28;20030;-70
2023/12/19 11:15:15;;;;;;;18.92;8.82;;;4.70;99.90;;;;;;5016048;28;20109;-69
2023/12/19 11:18:10;;;;;;;19.55;8.13;;;4.80;99.90;;;;;;5016965;28;20022;-69
2023/12/19 11:20:42;;;;;;;17.55;7.70;;;4.60;99.90;;;;;;5017066;28;20025;-71
2023/12/19 11:23:24;;;;;;;19.05;8.60;;;4.60;99.90;;;;;;5018577;28;20022;-69
2023/12/19 11:25:58;;;;;;;19.25;8.02;;;4.60;99.90;;;;;;5017444;28;20030;-69
2023/12/19 11:28:26;;;;;;;17.77;7.70;;;4.60;99.90;;;;;;5019866;28;20026;-70
2023/12/19 11:30:51;;;;;;;17.33;7.85;;;4.50;99.90;;;;;;5019770;28;20086;-69
2023/12/19 11:33:29;;;;;;;16.63;6.93;;;4.60;99.90;;;;;;5021103;28;20125;-69
2023/12/19 11:35:54;;;;;;;18.13;7.95;;;4.70;99.90;;;;;;5020620;28;20084;-70
2023/12/19 11:38:29;;;;;;;19.92;8.05;;;4.70;99.90;;;;;;5019697;28;20025;-70
2023/12/19 11:40:57;;;;;;;20.58;7.75;;;4.80;99.90;;;;;;5020886;28;20036;-69
2023/12/19 11:43:28;;;;;;;21.00;7.30;;;4.50;99.90;;;;;;5020358;28;20026;-70
2023/12/19 11:45:55;;;;;;;19.75;7.95;;;4.70;99.90;;;;;;5020649;28;20046;-69
2023/12/19 11:48:37;;;;;;;17.58;7.60;;;4.80;99.90;;;;;;5020324;28;20034;-69
2023/12/19 11:51:10;;;;;;;16.90;7.40;;;4.90;99.90;;;;;;5019345;28;20029;-70
2023/12/19 11:53:36;;;;;;;18.15;7.75;;;4.90;99.90;;;;;;5019214;28;20026;-70
2023/12/19 11:56:20;;;;;;;16.60;8.73;;;4.70;99.90;;;;;;5019351;28;20072;-70
2023/12/19 11:58:47;;;;;;;20.23;8.60;;;4.80;99.90;;;;;;5019119;28;20022;-70
2023/12/19 12:01:13;;;;;;;18.60;8.07;;;5.00;99.90;;;;;;5020286;28;20057;-68
2023/12/19 12:03:39;;;;;;;21.42;7.40;;;5.10;99.90;;;;;;5019521;28;20026;-69
2023/12/19 12:06:05;;;;;;;16.13;7.18;;;5.00;99.90;;;;;;5019454;28;20049;-70
2023/12/19 12:08:31;;;;;;;19.23;7.45;;;5.10;99.90;;;;;;5019403;28;20022;-69
2023/12/19 12:11:01;;;;;;;17.52;8.15;;;5.10;99.90;;;;;;5018949;28;20061;-69
2023/12/19 12:13:28;;;;;;;20.67;7.65;;;5.00;99.90;;;;;;5018890;28;20033;-70
2023/12/19 12:15:55;;;;;;;17.48;7.10;;;5.00;99.90;;;;;;5019067;28;20026;-69
2023/12/19 12:18:21;;;;;;;18.42;7.85;;;5.00;99.90;;;;;;5019933;28;20033;-69
2023/12/19 12:20:46;;;;;;;20.30;7.18;;;5.10;99.90;;;;;;5019659;28;20018;-69
2023/12/19 12:23:12;;;;;;;18.00;7.35;;;5.10;99.90;;;;;;5019191;28;20022;-69
2023/12/19 12:25:38;;;;;;;14.88;7.07;;;5.00;99.90;;;;;;5019478;28;20027;-69
2023/12/19 12:28:08;;;;;;;18.77;8.23;;;5.10;99.90;;;;;;5019799;28;20018;-70
2023/12/19 12:30:34;;;;;;;16.10;7.00;;;5.00;99.90;;;;;;5019937;28;20030;-69
2023/12/19 12:33:01;;;;;;;16.55;7.53;;;5.00;99.90;;;;;;5019408;28;20037;-70
2023/12/19 12:35:35;;;;;;;15.68;7.18;;;4.90;99.90;;;;;;5018688;28;20022;-70
2023/12/19 12:38:11;;;;;;;15.95;7.00;;;4.90;99.90;;;;;;5019170;28;20029;-69
2023/12/19 12:40:36;;;;;;;19.13;8.50;;;4.90;99.90;;;;;;5019612;28;20022;-75